sensor_id;sensor_type;location;lat;lon;timestamp;pressure;altitude;pressure_sealevel;temperature;humidity
19510;BME280;9896;42.486;26.506;2023-03-18T00:00:42;100359.56;;;3.33;91.92
19510;BME280;9896;42.486;26.506;2023-03-18T00:03:08;100339.84;;;3.62;85.12
19510;BME280;9896;42.486;26.506;2023-03-18T00:05:35;100342.16;;;3.83;83.58
19510;BME280;9896;42.486;26.506;2023-03-18T00:08:02;100340.72;;;3.89;83.38
19510;BME280;9896;42.486;26.506;2023-03-18T00:10:29;100352.50;;;3.86;83.92
19510;BME280;9896;42.486;26.506;2023-03-18T00:12:55;100341.41;;;3.73;84.76
19510;BME280;9896;42.486;26.506;2023-03-18T00:15:20;100344.84;;;3.65;87.30
19510;BME280;9896;42.486;26.506;2023-03-18T00:17:46;100346.56;;;3.92;86.93
19510;BME280;9896;42.486;26.506;2023-03-18T00:20:15;100353.16;;;3.88;85.56
19510;BME280;9896;42.486;26.506;2023-03-18T00:22:42;100344.28;;;3.97;82.75
19510;BME280;9896;42.486;26.506;2023-03-18T00:25:13;100356.19;;;3.93;84.56
19510;BME280;9896;42.486;26.506;2023-03-18T00:27:38;100330.94;;;3.71;87.38
19510;BME280;9896;42.486;26.506;2023-03-18T00:30:05;100336.25;;;3.71;87.46
19510;BME280;9896;42.486;26.506;2023-03-18T00:32:32;100348.69;;;3.89;86.28
19510;BME280;9896;42.486;26.506;2023-03-18T00:34:58;100345.31;;;4.04;86.60
19510;BME280;9896;42.486;26.506;2023-03-18T00:37:24;100349.38;;;3.91;87.57
19510;BME280;9896;42.486;26.506;2023-03-18T00:40:03;100350.66;;;3.87;89.16
19510;BME280;9896;42.486;26.506;2023-03-18T00:42:32;100339.28;;;3.59;89.93
19510;BME280;9896;42.486;26.506;2023-03-18T00:45:04;100321.13;;;3.46;91.10
19510;BME280;9896;42.486;26.506;2023-03-18T00:47:30;100332.53;;;3.29;91.99
19510;BME280;9896;42.486;26.506;2023-03-18T00:49:56;100334.91;;;3.05;93.97
19510;BME280;9896;42.486;26.506;2023-03-18T00:52:22;100332.06;;;2.89;94.56
19510;BME280;9896;42.486;26.506;2023-03-18T00:54:47;100314.84;;;2.75;95.82
19510;BME280;9896;42.486;26.506;2023-03-18T00:57:14;100322.53;;;2.68;96.75
19510;BME280;9896;42.486;26.506;2023-03-18T00:59:40;100320.72;;;2.69;96.82
19510;BME280;9896;42.486;26.506;2023-03-18T01:02:05;100321.44;;;2.61;98.08
19510;BME280;9896;42.486;26.506;2023-03-18T01:04:31;100315.59;;;2.58;99.11
19510;BME280;9896;42.486;26.506;2023-03-18T01:06:58;100319.59;;;2.71;98.88
19510;BME280;9896;42.486;26.506;2023-03-18T01:09:23;100321.69;;;2.68;98.78
19510;BME280;9896;42.486;26.506;2023-03-18T01:11:50;100306.53;;;2.60;99.26
19510;BME280;9896;42.486;26.506;2023-03-18T01:14:16;100304.28;;;2.65;99.20
19510;BME280;9896;42.486;26.506;2023-03-18T01:16:41;100301.28;;;2.51;99.05
19510;BME280;9896;42.486;26.506;2023-03-18T01:19:07;100311.88;;;2.51;99.59
19510;BME280;9896;42.486;26.506;2023-03-18T01:21:33;100305.31;;;2.45;100.00
19510;BME280;9896;42.486;26.506;2023-03-18T01:23:59;100317.38;;;2.67;98.96
19510;BME280;9896;42.486;26.506;2023-03-18T01:26:25;100300.66;;;2.66;99.33
19510;BME280;9896;42.486;26.506;2023-03-18T01:28:50;100306.34;;;2.71;99.52
19510;BME280;9896;42.486;26.506;2023-03-18T01:31:17;100297.78;;;2.60;100.00
19510;BME280;9896;42.486;26.506;2023-03-18T01:33:44;100304.78;;;2.42;100.00
19510;BME280;9896;42.486;26.506;2023-03-18T01:36:10;100294.59;;;2.56;99.71
19510;BME280;9896;42.486;26.506;2023-03-18T01:38:36;100304.44;;;2.27;100.00
19510;BME280;9896;42.486;26.506;2023-03-18T01:41:02;100298.84;;;2.20;100.00
19510;BME280;9896;42.486;26.506;2023-03-18T01:43:34;100301.06;;;2.25;100.00
19510;BME280;9896;42.486;26.506;2023-03-18T01:46:25;100298.44;;;2.25;100.00
19510;BME280;9896;42.486;26.506;2023-03-18T01:48:46;100296.41;;;2.46;98.90
19510;BME280;9896;42.486;26.506;2023-03-18T01:51:14;100284.09;;;2.27;99.61
19510;BME280;9896;42.486;26.506;2023-03-18T01:53:43;100306.53;;;2.60;96.58
19510;BME280;9896;42.486;26.506;2023-03-18T01:56:10;100307.94;;;2.64;97.08
19510;BME280;9896;42.486;26.506;2023-03-18T01:58:42;100303.94;;;2.51;97.82
19510;BME280;9896;42.486;26.506;2023-03-18T02:01:22;100308.28;;;2.32;98.71
19510;BME280;9896;42.486;26.506;2023-03-18T02:03:51;100317.81;;;2.16;98.78
19510;BME280;9896;42.486;26.506;2023-03-18T02:06:16;100305.16;;;2.00;99.87
19510;BME280;9896;42.486;26.506;2023-03-18T02:08:42;100295.47;;;1.91;100.00
19510;BME280;9896;42.486;26.506;2023-03-18T02:11:08;100305.03;;;1.92;100.00
19510;BME280;9896;42.486;26.506;2023-03-18T02:13:38;100302.00;;;1.77;100.00
19510;BME280;9896;42.486;26.506;2023-03-18T02:16:09;100302.16;;;1.66;100.00
19510;BME280;9896;42.486;26.506;2023-03-18T02:18:42;100296.03;;;1.66;100.00
19510;BME280;9896;42.486;26.506;2023-03-18T02:23:54;100305.78;;;1.75;100.00
19510;BME280;9896;42.486;26.506;2023-03-18T02:29:10;100307.84;;;1.91;100.00
19510;BME280;9896;42.486;26.506;2023-03-18T02:31:37;100305.59;;;1.48;100.00
19510;BME280;9896;42.486;26.506;2023-03-18T02:34:05;100308.94;;;1.40;100.00
19510;BME280;9896;42.486;26.506;2023-03-18T02:36:32;100310.91;;;1.38;100.00
19510;BME280;9896;42.486;26.506;2023-03-18T02:38:58;100312.03;;;1.55;100.00
19510;BME280;9896;42.486;26.506;2023-03-18T02:41:30;100304.53;;;1.50;100.00
19510;BME280;9896;42.486;26.506;2023-03-18T02:43:57;100317.53;;;1.23;100.00
19510;BME280;9896;42.486;26.506;2023-03-18T02:48:58;100316.56;;;1.24;100.00
19510;BME280;9896;42.486;26.506;2023-03-18T02:51:26;100317.00;;;1.29;100.00
19510;BME280;9896;42.486;26.506;2023-03-18T02:53:55;100316.16;;;1.28;100.00
19510;BME280;9896;42.486;26.506;2023-03-18T02:56:23;100318.53;;;1.31;100.00
19510;BME280;9896;42.486;26.506;2023-03-18T02:58:49;100316.88;;;1.59;100.00
19510;BME280;9896;42.486;26.506;2023-03-18T03:01:14;100321.50;;;1.67;100.00
19510;BME280;9896;42.486;26.506;2023-03-18T03:03:40;100325.22;;;1.83;99.00
19510;BME280;9896;42.486;26.506;2023-03-18T03:06:06;100315.34;;;1.85;98.47
19510;BME280;9896;42.486;26.506;2023-03-18T03:08:33;100320.94;;;1.82;99.64
19510;BME280;9896;42.486;26.506;2023-03-18T03:10:59;100319.25;;;1.72;100.00
19510;BME280;9896;42.486;26.506;2023-03-18T03:13:25;100315.63;;;1.73;100.00
19510;BME280;9896;42.486;26.506;2023-03-18T03:15:51;100325.09;;;1.85;99.48
19510;BME280;9896;42.486;26.506;2023-03-18T03:18:16;100316.59;;;1.53;100.00
19510;BME280;9896;42.486;26.506;2023-03-18T03:20:42;100325.78;;;1.49;99.75
19510;BME280;9896;42.486;26.506;2023-03-18T03:23:11;100328.25;;;1.31;99.02
19510;BME280;9896;42.486;26.506;2023-03-18T03:25:37;100326.31;;;1.23;98.50
19510;BME280;9896;42.486;26.506;2023-03-18T03:28:05;100331.31;;;1.26;98.85
19510;BME280;9896;42.486;26.506;2023-03-18T03:30:31;100324.03;;;1.00;100.00
19510;BME280;9896;42.486;26.506;2023-03-18T03:32:57;100325.72;;;1.10;99.29
19510;BME280;9896;42.486;26.506;2023-03-18T03:35:23;100325.75;;;1.20;97.31
19510;BME280;9896;42.486;26.506;2023-03-18T03:37:49;100328.41;;;1.29;96.10
19510;BME280;9896;42.486;26.506;2023-03-18T03:40:16;100303.41;;;1.53;92.95
19510;BME280;9896;42.486;26.506;2023-03-18T03:42:43;100324.38;;;1.25;97.25
19510;BME280;9896;42.486;26.506;2023-03-18T03:45:10;100323.47;;;0.96;99.70
19510;BME280;9896;42.486;26.506;2023-03-18T03:47:36;100314.28;;;0.90;97.80
19510;BME280;9896;42.486;26.506;2023-03-18T03:50:03;100313.03;;;0.94;98.18
19510;BME280;9896;42.486;26.506;2023-03-18T03:52:30;100319.78;;;1.27;96.00
19510;BME280;9896;42.486;26.506;2023-03-18T03:54:55;100318.84;;;1.38;96.80
19510;BME280;9896;42.486;26.506;2023-03-18T03:57:22;100321.75;;;1.45;95.66
19510;BME280;9896;42.486;26.506;2023-03-18T03:59:51;100321.31;;;1.30;96.60
19510;BME280;9896;42.486;26.506;2023-03-18T04:02:17;100320.34;;;1.31;97.38
19510;BME280;9896;42.486;26.506;2023-03-18T04:04:43;100322.25;;;1.10;99.92
19510;BME280;9896;42.486;26.506;2023-03-18T04:07:10;100315.44;;;1.07;100.00
19510;BME280;9896;42.486;26.506;2023-03-18T04:09:36;100328.38;;;1.20;99.27
19510;BME280;9896;42.486;26.506;2023-03-18T04:12:03;100327.00;;;1.35;96.86
19510;BME280;9896;42.486;26.506;2023-03-18T04:14:28;100336.59;;;1.26;96.52
19510;BME280;9896;42.486;26.506;2023-03-18T04:16:54;100311.72;;;1.29;93.95
19510;BME280;9896;42.486;26.506;2023-03-18T04:19:25;100331.50;;;1.34;93.48
19510;BME280;9896;42.486;26.506;2023-03-18T04:21:52;100330.31;;;1.08;95.66
19510;BME280;9896;42.486;26.506;2023-03-18T04:24:21;100326.66;;;1.00;96.03
19510;BME280;9896;42.486;26.506;2023-03-18T04:26:47;100330.69;;;0.94;97.16
19510;BME280;9896;42.486;26.506;2023-03-18T04:29:13;100325.84;;;0.99;95.87
19510;BME280;9896;42.486;26.506;2023-03-18T04:31:39;100328.88;;;0.85;96.88
19510;BME280;9896;42.486;26.506;2023-03-18T04:34:05;100327.66;;;1.08;95.80
19510;BME280;9896;42.486;26.506;2023-03-18T04:36:31;100329.94;;;1.51;90.91
19510;BME280;9896;42.486;26.506;2023-03-18T04:38:57;100328.44;;;1.68;89.67
19510;BME280;9896;42.486;26.506;2023-03-18T04:41:23;100328.13;;;2.19;83.13
19510;BME280;9896;42.486;26.506;2023-03-18T04:43:48;100320.47;;;2.62;79.56
19510;BME280;9896;42.486;26.506;2023-03-18T04:46:15;100327.00;;;2.68;80.12
19510;BME280;9896;42.486;26.506;2023-03-18T04:48:41;100325.28;;;2.76;78.13
19510;BME280;9896;42.486;26.506;2023-03-18T04:51:07;100324.19;;;2.69;79.09
19510;BME280;9896;42.486;26.506;2023-03-18T04:53:36;100314.31;;;2.62;79.46
19510;BME280;9896;42.486;26.506;2023-03-18T04:56:02;100315.25;;;2.70;78.29
19510;BME280;9896;42.486;26.506;2023-03-18T04:58:28;100324.66;;;2.65;79.03
19510;BME280;9896;42.486;26.506;2023-03-18T05:00:54;100330.28;;;2.79;78.46
19510;BME280;9896;42.486;26.506;2023-03-18T05:03:21;100324.00;;;2.80;78.93
19510;BME280;9896;42.486;26.506;2023-03-18T05:05:47;100311.03;;;2.77;80.56
19510;BME280;9896;42.486;26.506;2023-03-18T05:08:13;100320.38;;;2.81;80.12
19510;BME280;9896;42.486;26.506;2023-03-18T05:10:39;100329.13;;;2.92;80.43
19510;BME280;9896;42.486;26.506;2023-03-18T05:13:06;100337.81;;;3.02;78.40
19510;BME280;9896;42.486;26.506;2023-03-18T05:15:32;100329.31;;;3.08;77.20
19510;BME280;9896;42.486;26.506;2023-03-18T05:17:58;100337.38;;;3.34;77.07
19510;BME280;9896;42.486;26.506;2023-03-18T05:20:24;100328.41;;;3.62;74.33
19510;BME280;9896;42.486;26.506;2023-03-18T05:22:50;100342.47;;;3.80;72.42
19510;BME280;9896;42.486;26.506;2023-03-18T05:25:16;100351.09;;;4.00;70.93
19510;BME280;9896;42.486;26.506;2023-03-18T05:27:43;100343.75;;;4.11;68.85
19510;BME280;9896;42.486;26.506;2023-03-18T05:30:10;100342.50;;;4.24;68.02
19510;BME280;9896;42.486;26.506;2023-03-18T05:32:37;100343.94;;;4.18;68.36
19510;BME280;9896;42.486;26.506;2023-03-18T05:35:02;100345.06;;;4.33;68.38
19510;BME280;9896;42.486;26.506;2023-03-18T05:37:28;100353.91;;;4.42;67.51
19510;BME280;9896;42.486;26.506;2023-03-18T05:39:54;100350.28;;;4.68;66.92
19510;BME280;9896;42.486;26.506;2023-03-18T05:42:19;100352.03;;;4.60;67.52
19510;BME280;9896;42.486;26.506;2023-03-18T05:44:45;100350.66;;;4.82;66.80
19510;BME280;9896;42.486;26.506;2023-03-18T05:47:11;100359.53;;;4.98;66.37
19510;BME280;9896;42.486;26.506;2023-03-18T05:49:36;100352.84;;;4.86;66.77
19510;BME280;9896;42.486;26.506;2023-03-18T05:52:02;100354.69;;;4.94;65.71
19510;BME280;9896;42.486;26.506;2023-03-18T05:54:28;100359.50;;;4.90;66.09
19510;BME280;9896;42.486;26.506;2023-03-18T05:56:54;100360.00;;;4.94;66.46
19510;BME280;9896;42.486;26.506;2023-03-18T05:59:20;100360.69;;;4.96;65.76
19510;BME280;9896;42.486;26.506;2023-03-18T06:01:48;100355.88;;;4.99;65.74
19510;BME280;9896;42.486;26.506;2023-03-18T06:04:14;100359.00;;;5.29;63.52
19510;BME280;9896;42.486;26.506;2023-03-18T06:06:41;100358.31;;;5.27;62.36
19510;BME280;9896;42.486;26.506;2023-03-18T06:09:08;100355.53;;;5.36;61.29
19510;BME280;9896;42.486;26.506;2023-03-18T06:11:35;100351.91;;;5.45;61.06
19510;BME280;9896;42.486;26.506;2023-03-18T06:14:01;100356.59;;;5.59;60.32
19510;BME280;9896;42.486;26.506;2023-03-18T06:16:29;100365.41;;;5.68;59.63
19510;BME280;9896;42.486;26.506;2023-03-18T06:18:55;100365.41;;;5.68;59.63
19510;BME280;9896;42.486;26.506;2023-03-18T06:21:20;100361.56;;;5.62;59.21
19510;BME280;9896;42.486;26.506;2023-03-18T06:23:46;100357.56;;;5.58;59.37
19510;BME280;9896;42.486;26.506;2023-03-18T06:26:11;100366.75;;;5.80;58.35
19510;BME280;9896;42.486;26.506;2023-03-18T06:28:36;100356.34;;;6.03;58.80
19510;BME280;9896;42.486;26.506;2023-03-18T06:31:02;100367.97;;;6.34;56.79
19510;BME280;9896;42.486;26.506;2023-03-18T06:33:28;100353.69;;;6.11;57.44
19510;BME280;9896;42.486;26.506;2023-03-18T06:35:54;100358.69;;;6.14;57.57
19510;BME280;9896;42.486;26.506;2023-03-18T06:38:20;100357.78;;;5.81;57.65
19510;BME280;9896;42.486;26.506;2023-03-18T06:40:45;100362.41;;;5.71;59.11
19510;BME280;9896;42.486;26.506;2023-03-18T06:43:12;100366.38;;;5.59;59.26
19510;BME280;9896;42.486;26.506;2023-03-18T06:45:38;100362.53;;;5.45;59.75
19510;BME280;9896;42.486;26.506;2023-03-18T06:48:05;100373.69;;;5.49;60.53
19510;BME280;9896;42.486;26.506;2023-03-18T06:50:31;100381.88;;;5.80;59.55
19510;BME280;9896;42.486;26.506;2023-03-18T06:52:57;100373.78;;;5.89;59.58
19510;BME280;9896;42.486;26.506;2023-03-18T06:55:24;100377.28;;;5.90;58.60
19510;BME280;9896;42.486;26.506;2023-03-18T06:57:49;100370.66;;;6.10;57.78
19510;BME280;9896;42.486;26.506;2023-03-18T07:00:16;100372.31;;;6.03;56.94
19510;BME280;9896;42.486;26.506;2023-03-18T07:02:41;100365.97;;;5.96;56.34
19510;BME280;9896;42.486;26.506;2023-03-18T07:05:08;100369.97;;;6.00;55.03
19510;BME280;9896;42.486;26.506;2023-03-18T07:07:34;100369.97;;;6.08;54.96
19510;BME280;9896;42.486;26.506;2023-03-18T07:10:06;100367.00;;;6.19;55.22
19510;BME280;9896;42.486;26.506;2023-03-18T07:12:32;100367.50;;;6.31;54.16
19510;BME280;9896;42.486;26.506;2023-03-18T07:14:57;100365.94;;;6.52;50.69
19510;BME280;9896;42.486;26.506;2023-03-18T07:17:23;100360.75;;;6.75;49.64
19510;BME280;9896;42.486;26.506;2023-03-18T07:19:48;100360.69;;;6.99;45.23
19510;BME280;9896;42.486;26.506;2023-03-18T07:22:14;100369.38;;;6.85;41.00
19510;BME280;9896;42.486;26.506;2023-03-18T07:24:45;100347.97;;;7.10;40.22
19510;BME280;9896;42.486;26.506;2023-03-18T07:27:11;100358.25;;;7.52;39.22
19510;BME280;9896;42.486;26.506;2023-03-18T07:29:38;100355.28;;;7.16;37.95
19510;BME280;9896;42.486;26.506;2023-03-18T07:32:04;100367.94;;;7.14;39.18
19510;BME280;9896;42.486;26.506;2023-03-18T07:34:30;100359.75;;;7.23;38.78
19510;BME280;9896;42.486;26.506;2023-03-18T07:36:56;100361.53;;;7.31;38.57
19510;BME280;9896;42.486;26.506;2023-03-18T07:39:22;100358.22;;;7.29;39.15
19510;BME280;9896;42.486;26.506;2023-03-18T07:41:47;100361.84;;;7.67;39.08
19510;BME280;9896;42.486;26.506;2023-03-18T07:44:13;100363.59;;;7.82;37.90
19510;BME280;9896;42.486;26.506;2023-03-18T07:46:39;100363.88;;;8.10;37.47
19510;BME280;9896;42.486;26.506;2023-03-18T07:49:05;100358.00;;;7.69;37.47
19510;BME280;9896;42.486;26.506;2023-03-18T07:51:31;100359.66;;;7.39;37.21
19510;BME280;9896;42.486;26.506;2023-03-18T07:53:56;100349.31;;;7.44;36.81
19510;BME280;9896;42.486;26.506;2023-03-18T07:56:23;100360.09;;;7.51;37.20
19510;BME280;9896;42.486;26.506;2023-03-18T07:58:49;100354.16;;;7.94;37.22
19510;BME280;9896;42.486;26.506;2023-03-18T08:01:15;100352.09;;;8.19;36.64
19510;BME280;9896;42.486;26.506;2023-03-18T08:03:43;100352.47;;;8.39;36.13
19510;BME280;9896;42.486;26.506;2023-03-18T08:06:09;100340.97;;;8.38;35.74
19510;BME280;9896;42.486;26.506;2023-03-18T08:08:36;100352.41;;;8.47;35.76
19510;BME280;9896;42.486;26.506;2023-03-18T08:11:01;100343.78;;;8.60;35.38
19510;BME280;9896;42.486;26.506;2023-03-18T08:13:27;100353.72;;;8.80;35.20
19510;BME280;9896;42.486;26.506;2023-03-18T08:15:53;100352.34;;;8.99;35.02
19510;BME280;9896;42.486;26.506;2023-03-18T08:18:21;100353.63;;;8.74;35.34
19510;BME280;9896;42.486;26.506;2023-03-18T08:20:47;100348.09;;;9.19;35.02
19510;BME280;9896;42.486;26.506;2023-03-18T08:23:12;100352.53;;;8.83;35.43
19510;BME280;9896;42.486;26.506;2023-03-18T08:25:39;100346.72;;;8.94;36.02
19510;BME280;9896;42.486;26.506;2023-03-18T08:28:04;100339.06;;;9.20;34.82
19510;BME280;9896;42.486;26.506;2023-03-18T08:30:33;100341.91;;;8.90;34.82
19510;BME280;9896;42.486;26.506;2023-03-18T08:32:58;100334.53;;;8.77;35.48
19510;BME280;9896;42.486;26.506;2023-03-18T08:35:24;100346.22;;;9.34;34.69
19510;BME280;9896;42.486;26.506;2023-03-18T08:37:50;100345.13;;;9.29;34.82
19510;BME280;9896;42.486;26.506;2023-03-18T08:40:16;100351.66;;;9.41;35.01
19510;BME280;9896;42.486;26.506;2023-03-18T08:42:43;100336.72;;;9.17;33.91
19510;BME280;9896;42.486;26.506;2023-03-18T08:45:10;100349.09;;;9.18;34.75
19510;BME280;9896;42.486;26.506;2023-03-18T08:47:37;100351.34;;;9.00;35.32
19510;BME280;9896;42.486;26.506;2023-03-18T08:50:03;100344.69;;;9.47;34.98
19510;BME280;9896;42.486;26.506;2023-03-18T08:52:30;100339.50;;;9.60;34.89
19510;BME280;9896;42.486;26.506;2023-03-18T08:54:56;100338.84;;;9.58;34.82
19510;BME280;9896;42.486;26.506;2023-03-18T08:57:22;100349.84;;;9.12;35.18
19510;BME280;9896;42.486;26.506;2023-03-18T08:59:49;100344.84;;;9.24;35.28
19510;BME280;9896;42.486;26.506;2023-03-18T09:02:15;100318.38;;;9.50;35.50
19510;BME280;9896;42.486;26.506;2023-03-18T09:04:41;100330.59;;;9.38;34.78
19510;BME280;9896;42.486;26.506;2023-03-18T09:07:07;100330.53;;;10.31;34.06
19510;BME280;9896;42.486;26.506;2023-03-18T09:09:33;100332.31;;;10.24;33.33
19510;BME280;9896;42.486;26.506;2023-03-18T09:11:58;100336.91;;;9.88;34.25
19510;BME280;9896;42.486;26.506;2023-03-18T09:14:24;100334.44;;;10.91;33.47
19510;BME280;9896;42.486;26.506;2023-03-18T09:16:50;100327.66;;;10.95;32.72
19510;BME280;9896;42.486;26.506;2023-03-18T09:19:16;100327.84;;;10.93;33.08
19510;BME280;9896;42.486;26.506;2023-03-18T09:21:41;100334.63;;;10.83;33.40
19510;BME280;9896;42.486;26.506;2023-03-18T09:24:07;100315.56;;;10.71;34.32
19510;BME280;9896;42.486;26.506;2023-03-18T09:26:33;100327.34;;;11.17;33.76
19510;BME280;9896;42.486;26.506;2023-03-18T09:28:58;100329.16;;;11.04;33.57
19510;BME280;9896;42.486;26.506;2023-03-18T09:31:24;100313.41;;;10.88;34.09
19510;BME280;9896;42.486;26.506;2023-03-18T09:33:49;100317.34;;;10.98;33.87
19510;BME280;9896;42.486;26.506;2023-03-18T09:36:15;100307.53;;;11.12;34.30
19510;BME280;9896;42.486;26.506;2023-03-18T09:38:40;100310.63;;;10.19;34.63
19510;BME280;9896;42.486;26.506;2023-03-18T09:46:31;100325.91;;;10.18;33.91
19510;BME280;9896;42.486;26.506;2023-03-18T09:54:15;100315.94;;;11.02;33.40
19510;BME280;9896;42.486;26.506;2023-03-18T09:56:44;100311.38;;;11.50;32.77
19510;BME280;9896;42.486;26.506;2023-03-18T09:59:29;100314.69;;;11.59;32.84
19510;BME280;9896;42.486;26.506;2023-03-18T10:01:57;100310.78;;;10.66;34.02
19510;BME280;9896;42.486;26.506;2023-03-18T10:04:27;100323.56;;;10.99;33.51
19510;BME280;9896;42.486;26.506;2023-03-18T10:07:04;100315.94;;;11.63;32.94
19510;BME280;9896;42.486;26.506;2023-03-18T10:09:43;100306.34;;;11.28;32.84
19510;BME280;9896;42.486;26.506;2023-03-18T10:12:44;100309.72;;;10.61;34.45
19510;BME280;9896;42.486;26.506;2023-03-18T10:17:45;100287.06;;;11.04;33.97
19510;BME280;9896;42.486;26.506;2023-03-18T10:20:19;100293.72;;;11.22;33.58
19510;BME280;9896;42.486;26.506;2023-03-18T10:23:04;100294.88;;;10.99;33.67
19510;BME280;9896;42.486;26.506;2023-03-18T10:25:37;100294.31;;;11.17;33.25
19510;BME280;9896;42.486;26.506;2023-03-18T10:33:45;100297.78;;;11.65;33.54
19510;BME280;9896;42.486;26.506;2023-03-18T10:36:21;100278.56;;;11.68;33.46
19510;BME280;9896;42.486;26.506;2023-03-18T10:38:52;100281.53;;;11.93;32.95
19510;BME280;9896;42.486;26.506;2023-03-18T10:41:29;100277.41;;;11.97;32.56
19510;BME280;9896;42.486;26.506;2023-03-18T10:43:57;100272.41;;;11.87;32.42
19510;BME280;9896;42.486;26.506;2023-03-18T10:46:26;100281.41;;;11.53;33.67
19510;BME280;9896;42.486;26.506;2023-03-18T10:48:59;100269.72;;;11.81;32.65
19510;BME280;9896;42.486;26.506;2023-03-18T10:51:43;100277.13;;;11.65;33.15
19510;BME280;9896;42.486;26.506;2023-03-18T10:54:27;100276.53;;;12.49;32.54
19510;BME280;9896;42.486;26.506;2023-03-18T10:56:56;100268.31;;;11.98;33.10
19510;BME280;9896;42.486;26.506;2023-03-18T10:59:24;100260.00;;;12.32;32.57
19510;BME280;9896;42.486;26.506;2023-03-18T11:01:58;100259.59;;;12.22;32.26
19510;BME280;9896;42.486;26.506;2023-03-18T11:04:26;100251.94;;;12.19;32.54
19510;BME280;9896;42.486;26.506;2023-03-18T11:07:00;100237.69;;;11.99;33.77
19510;BME280;9896;42.486;26.506;2023-03-18T11:09:36;100248.50;;;12.76;31.85
19510;BME280;9896;42.486;26.506;2023-03-18T11:12:06;100236.38;;;12.54;32.33
19510;BME280;9896;42.486;26.506;2023-03-18T11:14:38;100251.13;;;13.02;31.10
19510;BME280;9896;42.486;26.506;2023-03-18T11:17:30;100236.25;;;12.93;31.54
19510;BME280;9896;42.486;26.506;2023-03-18T11:20:23;100237.81;;;12.63;32.03
19510;BME280;9896;42.486;26.506;2023-03-18T11:23:03;100228.47;;;12.66;32.44
19510;BME280;9896;42.486;26.506;2023-03-18T11:25:37;100237.09;;;12.87;32.15
19510;BME280;9896;42.486;26.506;2023-03-18T11:28:04;100223.53;;;12.63;32.75
19510;BME280;9896;42.486;26.506;2023-03-18T11:30:43;100237.66;;;12.32;32.87
19510;BME280;9896;42.486;26.506;2023-03-18T11:35:56;100215.59;;;11.97;33.92
19510;BME280;9896;42.486;26.506;2023-03-18T11:38:31;100220.78;;;12.76;32.30
19510;BME280;9896;42.486;26.506;2023-03-18T11:41:21;100224.59;;;13.06;31.07
19510;BME280;9896;42.486;26.506;2023-03-18T11:46:29;100211.38;;;12.98;31.70
19510;BME280;9896;42.486;26.506;2023-03-18T11:48:56;100219.25;;;12.42;31.66
19510;BME280;9896;42.486;26.506;2023-03-18T11:51:38;100206.56;;;12.62;31.14
19510;BME280;9896;42.486;26.506;2023-03-18T11:56:47;100213.25;;;12.33;32.15
19510;BME280;9896;42.486;26.506;2023-03-18T12:02:29;100205.03;;;12.86;32.27
19510;BME280;9896;42.486;26.506;2023-03-18T12:10:24;100212.94;;;12.74;31.86
19510;BME280;9896;42.486;26.506;2023-03-18T12:15:49;100198.50;;;13.13;31.45
19510;BME280;9896;42.486;26.506;2023-03-18T12:20:55;100206.84;;;12.92;31.01
19510;BME280;9896;42.486;26.506;2023-03-18T12:31:40;100192.34;;;13.69;30.82
19510;BME280;9896;42.486;26.506;2023-03-18T12:40:10;100184.91;;;13.64;29.38
19510;BME280;9896;42.486;26.506;2023-03-18T12:45:15;100188.09;;;13.23;29.75
19510;BME280;9896;42.486;26.506;2023-03-18T12:47:51;100193.91;;;12.69;30.56
19510;BME280;9896;42.486;26.506;2023-03-18T12:50:23;100176.94;;;13.20;30.64
19510;BME280;9896;42.486;26.506;2023-03-18T12:53:02;100172.06;;;13.35;29.97
19510;BME280;9896;42.486;26.506;2023-03-18T12:55:31;100180.66;;;12.68;30.87
19510;BME280;9896;42.486;26.506;2023-03-18T12:58:05;100179.41;;;12.70;31.39
19510;BME280;9896;42.486;26.506;2023-03-18T13:05:51;100182.59;;;12.54;32.40
19510;BME280;9896;42.486;26.506;2023-03-18T13:08:30;100178.56;;;12.76;32.24
19510;BME280;9896;42.486;26.506;2023-03-18T13:11:13;100191.75;;;12.33;32.53
19510;BME280;9896;42.486;26.506;2023-03-18T13:13:49;100178.19;;;12.66;32.48
19510;BME280;9896;42.486;26.506;2023-03-18T13:16:17;100156.13;;;12.95;31.82
19510;BME280;9896;42.486;26.506;2023-03-18T13:18:47;100175.25;;;13.75;31.06
19510;BME280;9896;42.486;26.506;2023-03-18T13:21:18;100167.25;;;13.93;29.72
19510;BME280;9896;42.486;26.506;2023-03-18T13:24:33;100168.66;;;12.70;31.12
19510;BME280;9896;42.486;26.506;2023-03-18T13:29:37;100162.72;;;13.62;30.69
19510;BME280;9896;42.486;26.506;2023-03-18T13:35:25;100154.38;;;14.13;30.10
19510;BME280;9896;42.486;26.506;2023-03-18T13:43:19;100164.03;;;13.78;30.09
19510;BME280;9896;42.486;26.506;2023-03-18T13:45:49;100167.28;;;12.92;31.64
19510;BME280;9896;42.486;26.506;2023-03-18T13:48:20;100140.19;;;12.94;31.51
19510;BME280;9896;42.486;26.506;2023-03-18T13:50:49;100153.97;;;12.66;32.26
19510;BME280;9896;42.486;26.506;2023-03-18T13:56:25;100159.06;;;12.36;32.53
19510;BME280;9896;42.486;26.506;2023-03-18T13:58:52;100164.94;;;11.94;33.38
19510;BME280;9896;42.486;26.506;2023-03-18T14:04:30;100152.72;;;12.69;32.85
19510;BME280;9896;42.486;26.506;2023-03-18T14:07:24;100154.44;;;12.56;34.33
19510;BME280;9896;42.486;26.506;2023-03-18T14:17:57;100156.91;;;12.58;33.12
19510;BME280;9896;42.486;26.506;2023-03-18T14:20:37;100151.06;;;13.05;32.99
19510;BME280;9896;42.486;26.506;2023-03-18T14:25:49;100137.34;;;13.52;33.25
19510;BME280;9896;42.486;26.506;2023-03-18T14:28:24;100143.75;;;13.50;32.88
19510;BME280;9896;42.486;26.506;2023-03-18T14:35:48;100153.66;;;13.32;32.81
19510;BME280;9896;42.486;26.506;2023-03-18T14:38:21;100155.56;;;12.80;33.86
19510;BME280;9896;42.486;26.506;2023-03-18T14:40:51;100150.56;;;13.28;32.84
19510;BME280;9896;42.486;26.506;2023-03-18T14:43:26;100145.31;;;13.89;31.84
19510;BME280;9896;42.486;26.506;2023-03-18T14:45:58;100142.53;;;12.77;32.39